This is the latest recevied weather packets stored in our database for station/object OE-11344. If no packets are shown the sender has not sent any weather packets the latest 10 day(s).
| Time | Temp. | Humidity | Pressure | Rain* | Wind** | Luminosity | Snow |
|---|---|---|---|---|---|---|---|
| 1787623884 | 15.56° C | 55% | 848.9 hPa | 0 mm | - | 0 W/m² | - |
| 1787623511 | 15.56° C | 56% | 849 hPa | 0 mm | - | 0 W/m² | - |
| 1787622912 | 16.11° C | 53% | 849.1 hPa | 0 mm | - | 0 W/m² | - |
| 1787622085 | 15.56° C | 58% | 849.2 hPa | 0 mm | - | 0 W/m² | - |
| 1787621712 | 15° C | 58% | 849.6 hPa | 0 mm | - | 0 W/m² | - |
| 1787621112 | 15° C | 59% | 850.1 hPa | 0 mm | - | 0 W/m² | - |
| 1787620284 | 15° C | 59% | 850 hPa | 0 mm | - | 0 W/m² | - |
| 1787619912 | 15° C | 59% | 850.2 hPa | 0 mm | - | 0 W/m² | - |
| 1787619312 | 15.56° C | 57% | 850.3 hPa | 0 mm | - | 0 W/m² | - |
| 1787618484 | 15.56° C | 59% | 850.5 hPa | 0 mm | - | 0 W/m² | - |
| 1787618112 | 15.56° C | 59% | 850.6 hPa | 0 mm | - | 0 W/m² | - |
| 1787617512 | 15° C | 60% | 850.3 hPa | 0 mm | - | 0 W/m² | - |
| 1787616685 | 15° C | 60% | 850.8 hPa | 0 mm | - | 0 W/m² | - |
| 1787616312 | 15° C | 61% | 851.1 hPa | 0 mm | - | 0 W/m² | - |
| 1787615712 | 15° C | 62% | 851 hPa | 0 mm | - | 0 W/m² | - |
| 1787614884 | 15° C | 61% | 851.3 hPa | 0 mm | - | 0 W/m² | - |
| 1787614512 | 15° C | 59% | 851.7 hPa | 0.25 mm | - | 0 W/m² | - |
| 1787613912 | 14.44° C | 61% | 851.7 hPa | 1.02 mm | - | 0 W/m² | - |
| 1787613312 | 14.44° C | 61% | 851.7 hPa | 1.27 mm | - | 0 W/m² | - |
| 1787612711 | 14.44° C | 61% | 852.1 hPa | 1.27 mm | - | 0 W/m² | - |
| 1787612112 | 14.44° C | 64% | 852.4 hPa | 1.27 mm | - | 0 W/m² | - |
| 1787611285 | 13.89° C | 64% | 852.6 hPa | 1.27 mm | - | 0 W/m² | - |
| 1787610911 | 12.78° C | 73% | 853.3 hPa | 1.27 mm | - | 0 W/m² | - |
| 1787610312 | 13.89° C | 65% | 853.4 hPa | 1.52 mm | - | 0 W/m² | - |
| 1787609485 | 12.78° C | 83% | 853.6 hPa | 1.52 mm | - | 0 W/m² | - |
* Rain latest hour (hover to see other rain measurements)
** Current wind speed in m/s (hover to see current wind gust speed)